createdAt,value
2023-05-22T00:00:35.874Z,101302.28
2023-05-22T00:03:07.300Z,101298.31
2023-05-22T00:05:39.347Z,101296.78
2023-05-22T00:08:12.943Z,101295.91
2023-05-22T00:10:43.451Z,101289.44
2023-05-22T00:13:13.729Z,101296.38
2023-05-22T00:15:44.035Z,101293.28
2023-05-22T00:18:14.291Z,101300.22
2023-05-22T00:20:46.695Z,101293.72
2023-05-22T00:23:19.705Z,101294.38
2023-05-22T00:25:50.970Z,101287.59
2023-05-22T00:28:21.269Z,101293.34
2023-05-22T00:30:51.562Z,101296.69
2023-05-22T00:33:21.912Z,101290.91
2023-05-22T00:35:52.223Z,101290.38
2023-05-22T00:38:36.780Z,101293.88
2023-05-22T00:41:09.005Z,101290.47
2023-05-22T00:43:41.494Z,101287.72
2023-05-22T00:46:12.885Z,101278.38
2023-05-22T00:48:43.251Z,101275.81
2023-05-22T00:51:13.982Z,101277.97
2023-05-22T00:53:47.258Z,101267.63
2023-05-22T00:56:18.784Z,101276.06
2023-05-22T00:58:49.154Z,101264.84
2023-05-22T01:01:20.011Z,101266.16
2023-05-22T01:03:51.017Z,101272.78
2023-05-22T01:06:21.803Z,101263.25
2023-05-22T01:08:54.702Z,101259.31
2023-05-22T01:11:31.454Z,101257.41
2023-05-22T01:14:11.049Z,101263.97
2023-05-22T01:16:52.069Z,101256.78
2023-05-22T01:19:50.824Z,101257.41
2023-05-22T01:22:38.954Z,101251.88
2023-05-22T01:25:39.393Z,101254.91
2023-05-22T01:28:29.111Z,101260.81
2023-05-22T01:31:05.224Z,101253.13
2023-05-22T01:33:40.458Z,101255.47
2023-05-22T01:36:12.377Z,101256.59
2023-05-22T01:38:44.434Z,101259.78
2023-05-22T01:41:15.165Z,101250.97
2023-05-22T01:43:45.680Z,101262.41
2023-05-22T01:46:18.940Z,101262.72
2023-05-22T01:48:49.273Z,101261.47
2023-05-22T01:51:28.737Z,101257.38
2023-05-22T01:54:14.807Z,101261.84
2023-05-22T01:56:55.132Z,101260.44
2023-05-22T01:59:37.728Z,101263.44
2023-05-22T02:02:14.221Z,101255.78
2023-05-22T02:04:49.610Z,101257.66
2023-05-22T02:07:23.053Z,101252.66
2023-05-22T02:09:55.262Z,101254.69
2023-05-22T02:12:26.695Z,101253.13
2023-05-22T02:14:57.784Z,101256.28
2023-05-22T02:17:30.956Z,101261.13
2023-05-22T02:20:01.317Z,101251.47
2023-05-22T02:22:32.113Z,101249.06
2023-05-22T02:25:02.370Z,101255.63
2023-05-22T02:27:32.818Z,101257.63
2023-05-22T02:30:03.461Z,101256.25
2023-05-22T02:32:36.498Z,101250.41
2023-05-22T02:35:07.528Z,101254.72
2023-05-22T02:37:38.176Z,101252.31
2023-05-22T02:40:10.503Z,101259.19
2023-05-22T02:42:40.899Z,101248.78
2023-05-22T02:45:13.384Z,101253.50
2023-05-22T02:47:46.378Z,101261.19
2023-05-22T02:50:16.768Z,101256.09
2023-05-22T02:52:47.034Z,101252.38
2023-05-22T02:55:17.648Z,101263.50
2023-05-22T02:57:47.971Z,101262.22
2023-05-22T03:00:19.904Z,101257.94
2023-05-22T03:02:52.815Z,101255.84
2023-05-22T03:05:23.453Z,101249.03
2023-05-22T03:07:53.741Z,101256.44
2023-05-22T03:10:24.031Z,101258.13
2023-05-22T03:12:54.790Z,101257.28
2023-05-22T03:15:25.141Z,101266.38
2023-05-22T03:17:58.014Z,101247.91
2023-05-22T03:20:28.472Z,101260.72
2023-05-22T03:22:58.765Z,101255.03
2023-05-22T03:25:29.069Z,101270.81
2023-05-22T03:27:59.340Z,101264.38
2023-05-22T03:30:29.714Z,101260.28
2023-05-22T03:33:02.665Z,101261.41
2023-05-22T03:35:33.020Z,101268.25
2023-05-22T03:38:03.327Z,101266.53
2023-05-22T03:40:33.603Z,101265.81
2023-05-22T03:43:03.955Z,101267.81
2023-05-22T03:45:34.333Z,101265.97
2023-05-22T03:48:07.764Z,101272.06
2023-05-22T03:50:38.434Z,101275.78
2023-05-22T03:53:08.929Z,101268.38
2023-05-22T03:55:39.633Z,101276.63
2023-05-22T03:58:10.251Z,101271.81
2023-05-22T04:00:41.270Z,101282.03
2023-05-22T04:03:14.895Z,101274.91
2023-05-22T04:05:45.381Z,101276.63
2023-05-22T04:08:15.706Z,101284.00
2023-05-22T04:10:46.799Z,101276.06
2023-05-22T04:13:17.714Z,101276.91
2023-05-22T04:15:48.096Z,101280.44
2023-05-22T04:18:20.969Z,101277.75
2023-05-22T04:20:52.176Z,101278.63
2023-05-22T04:23:22.931Z,101277.75
2023-05-22T04:25:53.560Z,101275.75
2023-05-22T04:28:26.956Z,101266.53
2023-05-22T04:30:57.847Z,101268.53
2023-05-22T04:33:34.665Z,101263.97
2023-05-22T04:36:05.353Z,101269.22
2023-05-22T04:38:37.387Z,101269.22
2023-05-22T04:41:08.876Z,101265.81
2023-05-22T04:43:40.233Z,101271.22
2023-05-22T04:46:10.783Z,101267.94
2023-05-22T04:48:43.700Z,101266.53
2023-05-22T04:51:14.588Z,101252.75
2023-05-22T04:53:46.454Z,101268.66
2023-05-22T04:56:27.931Z,101267.53
2023-05-22T04:59:05.773Z,101265.94
2023-05-22T05:01:36.139Z,101270.22
2023-05-22T05:04:09.096Z,101272.25
2023-05-22T05:06:43.531Z,101266.97
2023-05-22T05:09:13.928Z,101269.59
2023-05-22T05:11:44.215Z,101276.38
2023-05-22T05:14:14.490Z,101273.19
2023-05-22T05:16:44.796Z,101283.06
2023-05-22T05:19:18.114Z,101280.72
2023-05-22T05:21:48.848Z,101282.34
2023-05-22T05:24:20.339Z,101268.53
2023-05-22T05:26:50.685Z,101272.94
2023-05-22T05:29:21.039Z,101277.09
2023-05-22T05:31:51.640Z,101280.69
2023-05-22T05:34:24.523Z,101284.88
2023-05-22T05:36:57.507Z,101274.53
2023-05-22T05:39:27.843Z,101279.69
2023-05-22T05:41:58.176Z,101274.84
2023-05-22T05:44:28.558Z,101283.31
2023-05-22T05:46:58.870Z,101278.19
2023-05-22T05:49:33.053Z,101274.91
2023-05-22T05:52:05.360Z,101274.84
2023-05-22T05:54:35.612Z,101287.66
2023-05-22T05:57:06.228Z,101277.38
2023-05-22T05:59:36.509Z,101284.25
2023-05-22T06:02:06.937Z,101284.41
2023-05-22T06:04:39.809Z,101282.84
2023-05-22T06:07:10.112Z,101285.06
2023-05-22T06:09:40.935Z,101284.50
2023-05-22T06:12:13.399Z,101281.56
2023-05-22T06:14:43.684Z,101289.41
2023-05-22T06:17:14.019Z,101290.25
2023-05-22T06:19:46.926Z,101293.22
2023-05-22T06:22:17.333Z,101292.78
2023-05-22T06:24:47.589Z,101294.47
2023-05-22T06:27:17.893Z,101304.63
2023-05-22T06:29:48.221Z,101302.72
2023-05-22T06:32:18.804Z,101309.94
2023-05-22T06:34:52.764Z,101299.56
2023-05-22T06:37:23.056Z,101303.31
2023-05-22T06:39:53.319Z,101304.94
2023-05-22T06:42:23.670Z,101313.16
2023-05-22T06:44:54.003Z,101309.09
2023-05-22T06:47:24.453Z,101313.72
2023-05-22T06:49:57.372Z,101311.22
2023-05-22T06:52:27.704Z,101300.47
2023-05-22T06:55:04.586Z,101314.88
2023-05-22T06:57:35.213Z,101303.88
2023-05-22T07:00:07.897Z,101318.47
2023-05-22T07:02:38.357Z,101316.16
2023-05-22T07:05:11.991Z,101307.72
2023-05-22T07:07:42.272Z,101312.38
2023-05-22T07:10:13.782Z,101304.75
2023-05-22T07:12:44.069Z,101313.47
2023-05-22T07:15:15.057Z,101309.63
2023-05-22T07:17:45.450Z,101316.78
2023-05-22T07:20:18.834Z,101310.94
2023-05-22T07:22:49.136Z,101307.69
2023-05-22T07:25:20.250Z,101318.28
2023-05-22T07:27:50.585Z,101315.53
2023-05-22T07:30:20.976Z,101326.53
2023-05-22T07:32:51.671Z,101328.22
2023-05-22T07:35:24.764Z,101320.25
2023-05-22T07:37:55.123Z,101323.22
2023-05-22T07:40:26.570Z,101315.84
2023-05-22T07:42:57.351Z,101316.50
2023-05-22T07:45:27.632Z,101317.34
2023-05-22T07:47:59.292Z,101321.34
2023-05-22T07:50:33.420Z,101318.59
2023-05-22T07:53:04.816Z,101324.75
2023-05-22T07:55:35.314Z,101332.97
2023-05-22T07:58:05.951Z,101335.50
2023-05-22T08:00:36.285Z,101337.84
2023-05-22T08:03:07.041Z,101330.88
2023-05-22T08:05:40.057Z,101320.50
2023-05-22T08:08:10.618Z,101325.56
2023-05-22T08:10:58.132Z,101337.63
2023-05-22T08:13:31.575Z,101338.03
2023-05-22T08:16:01.905Z,101338.88
2023-05-22T08:18:32.316Z,101339.94
2023-05-22T08:21:05.195Z,101345.03
2023-05-22T08:23:36.543Z,101348.19
2023-05-22T08:26:08.994Z,101350.94
2023-05-22T08:28:42.303Z,101343.97
2023-05-22T08:31:12.653Z,101359.19
2023-05-22T08:33:43.382Z,101351.34
2023-05-22T08:36:16.586Z,101349.47
2023-05-22T08:38:46.855Z,101353.69
2023-05-22T08:41:17.620Z,101354.13
2023-05-22T08:43:47.995Z,101358.34
2023-05-22T08:46:20.374Z,101353.69
2023-05-22T08:48:52.386Z,101346.50
2023-05-22T08:51:31.765Z,101353.25
2023-05-22T08:54:04.213Z,101352.59
2023-05-22T08:56:37.309Z,101353.44
2023-05-22T08:59:11.551Z,101364.25
2023-05-22T09:01:41.934Z,101356.38
2023-05-22T09:04:12.364Z,101362.91
2023-05-22T09:06:45.373Z,101359.13
2023-05-22T09:09:15.644Z,101359.34
2023-05-22T09:11:45.959Z,101372.03
2023-05-22T09:14:16.351Z,101366.34
2023-05-22T09:16:50.001Z,101365.88
2023-05-22T09:19:20.860Z,101367.78
2023-05-22T09:21:55.216Z,101373.25
2023-05-22T09:24:25.559Z,101368.72
2023-05-22T09:26:56.146Z,101358.19
2023-05-22T09:29:26.639Z,101368.31
2023-05-22T09:31:57.830Z,101357.31
2023-05-22T09:34:33.185Z,101352.63
2023-05-22T09:37:09.716Z,101357.03
2023-05-22T09:39:44.120Z,101355.72
2023-05-22T09:42:19.513Z,101356.97
2023-05-22T09:44:52.497Z,101354.56
2023-05-22T09:47:22.901Z,101357.09
2023-05-22T09:49:53.245Z,101357.50
2023-05-22T09:52:27.729Z,101344.22
2023-05-22T09:54:59.971Z,101350.97
2023-05-22T09:57:33.030Z,101352.72
2023-05-22T10:00:11.878Z,101348.22
2023-05-22T10:02:47.846Z,101349.53
2023-05-22T10:05:22.143Z,101347.78
2023-05-22T10:08:00.253Z,101344.38
2023-05-22T10:10:31.624Z,101336.78
2023-05-22T10:13:06.785Z,101331.00
2023-05-22T10:15:38.216Z,101338.34
2023-05-22T10:18:09.426Z,101340.00
2023-05-22T10:20:40.518Z,101346.38
2023-05-22T10:23:13.910Z,101342.56
2023-05-22T10:25:44.442Z,101339.53
2023-05-22T10:28:18.296Z,101337.31
2023-05-22T10:30:56.349Z,101339.69
2023-05-22T10:33:32.389Z,101356.63
2023-05-22T10:36:09.265Z,101344.88
2023-05-22T10:39:07.607Z,101347.22
2023-05-22T10:41:38.844Z,101354.44
2023-05-22T10:44:10.014Z,101336.59
2023-05-22T10:46:40.485Z,101334.41
2023-05-22T10:49:10.918Z,101339.91
2023-05-22T10:51:41.267Z,101328.44
2023-05-22T10:54:14.143Z,101324.22
2023-05-22T10:56:44.462Z,101325.91
2023-05-22T10:59:14.738Z,101316.63
2023-05-22T11:01:45.188Z,101319.19
2023-05-22T11:04:16.293Z,101313.00
2023-05-22T11:06:49.358Z,101321.34
2023-05-22T11:09:32.369Z,101319.63
2023-05-22T11:12:21.593Z,101308.59
2023-05-22T11:14:54.765Z,101314.88
2023-05-22T11:17:27.229Z,101304.56
2023-05-22T11:20:06.201Z,101306.06
2023-05-22T11:22:41.401Z,101304.25
2023-05-22T11:25:19.170Z,101306.97
2023-05-22T11:27:51.730Z,101305.03
2023-05-22T11:30:22.339Z,101298.88
2023-05-22T11:32:52.697Z,101300.00
2023-05-22T11:35:24.666Z,101290.97
2023-05-22T11:37:56.665Z,101302.81
2023-05-22T11:40:31.288Z,101301.59
2023-05-22T11:43:02.089Z,101288.31
2023-05-22T11:45:32.360Z,101291.16
2023-05-22T11:48:02.772Z,101293.06
2023-05-22T11:50:41.781Z,101295.47
2023-05-22T11:53:13.193Z,101293.53
2023-05-22T11:55:46.234Z,101295.59
2023-05-22T11:58:18.221Z,101286.47
2023-05-22T12:00:48.565Z,101299.41
2023-05-22T12:03:18.934Z,101284.47
2023-05-22T12:05:49.791Z,101304.09
2023-05-22T12:08:20.826Z,101295.31
2023-05-22T12:10:54.484Z,101289.22
2023-05-22T12:13:29.687Z,101288.91
2023-05-22T12:16:02.132Z,101282.38
2023-05-22T12:18:39.405Z,101276.47
2023-05-22T12:21:10.623Z,101274.13
2023-05-22T12:23:51.995Z,101270.34
2023-05-22T12:26:25.055Z,101269.97
2023-05-22T12:28:56.556Z,101268.34
2023-05-22T12:31:27.112Z,101274.09
2023-05-22T12:33:58.061Z,101265.44
2023-05-22T12:36:37.248Z,101263.78
2023-05-22T12:39:12.177Z,101262.44
2023-05-22T12:41:45.259Z,101271.09
2023-05-22T12:44:19.262Z,101261.88
2023-05-22T12:46:50.410Z,101265.59
2023-05-22T12:49:21.018Z,101264.31
2023-05-22T12:51:51.425Z,101265.88
2023-05-22T12:54:21.771Z,101253.00
2023-05-22T12:56:54.636Z,101258.31
2023-05-22T12:59:24.911Z,101260.47
2023-05-22T13:01:55.451Z,101248.69
2023-05-22T13:04:26.024Z,101245.56
2023-05-22T13:06:56.454Z,101246.75
2023-05-22T13:09:26.835Z,101247.94
2023-05-22T13:12:00.371Z,101246.75
2023-05-22T13:14:30.750Z,101236.66
2023-05-22T13:17:01.052Z,101247.88
2023-05-22T13:19:31.627Z,101235.47
2023-05-22T13:22:02.049Z,101234.75
2023-05-22T13:24:32.516Z,101236.81
2023-05-22T13:27:05.472Z,101238.38
2023-05-22T13:29:36.050Z,101231.38
2023-05-22T13:32:06.763Z,101236.16
2023-05-22T13:34:37.162Z,101226.69
2023-05-22T13:37:08.199Z,101237.97
2023-05-22T13:39:38.660Z,101247.41
2023-05-22T13:42:12.081Z,101242.34
2023-05-22T13:44:42.422Z,101240.41
2023-05-22T13:47:13.091Z,101241.97
2023-05-22T13:49:43.564Z,101241.34
2023-05-22T13:52:13.949Z,101231.59
2023-05-22T13:54:44.319Z,101242.66
2023-05-22T13:57:17.401Z,101250.72
2023-05-22T13:59:47.706Z,101241.09
2023-05-22T14:02:19.945Z,101251.25
2023-05-22T14:04:51.553Z,101254.78
2023-05-22T14:07:22.600Z,101259.59
2023-05-22T14:09:52.914Z,101249.25
2023-05-22T14:12:25.936Z,101246.97
2023-05-22T14:14:56.395Z,101248.13
2023-05-22T14:17:27.295Z,101250.44
2023-05-22T14:19:59.268Z,101246.34
2023-05-22T14:22:29.613Z,101258.84
2023-05-22T14:24:59.984Z,101249.63
2023-05-22T14:27:33.010Z,101260.75
2023-05-22T14:30:03.344Z,101252.00
2023-05-22T14:32:33.636Z,101244.69
2023-05-22T14:35:03.952Z,101249.84
2023-05-22T14:37:34.253Z,101249.38
2023-05-22T14:40:04.648Z,101251.53
2023-05-22T14:42:37.946Z,101252.44
2023-05-22T14:45:09.711Z,101259.91
2023-05-22T14:47:41.046Z,101254.03
2023-05-22T14:50:18.895Z,101252.75
2023-05-22T14:52:50.613Z,101261.28
2023-05-22T14:55:22.001Z,101265.50
2023-05-22T14:58:00.212Z,101275.47
2023-05-22T15:00:33.997Z,101273.66
2023-05-22T15:03:04.456Z,101269.75
2023-05-22T15:05:34.976Z,101285.31
2023-05-22T15:08:05.282Z,101278.94
2023-05-22T15:10:35.616Z,101277.66
2023-05-22T15:13:08.603Z,101281.63
2023-05-22T15:15:39.149Z,101283.31
2023-05-22T15:18:09.945Z,101280.13
2023-05-22T15:20:40.247Z,101286.88
2023-05-22T15:23:10.549Z,101284.22
2023-05-22T15:25:41.414Z,101282.91
2023-05-22T15:28:14.706Z,101283.19
2023-05-22T15:30:45.028Z,101290.34
2023-05-22T15:33:15.436Z,101294.50
2023-05-22T15:35:47.110Z,101295.94
2023-05-22T15:38:17.590Z,101301.72
2023-05-22T15:40:47.960Z,101306.25
2023-05-22T15:43:20.869Z,101307.56
2023-05-22T15:45:51.555Z,101318.03
2023-05-22T15:48:21.964Z,101308.97
2023-05-22T15:50:52.365Z,101318.16
2023-05-22T15:53:23.088Z,101321.94
2023-05-22T15:55:53.779Z,101328.56
2023-05-22T15:58:26.792Z,101333.13
2023-05-22T16:00:57.751Z,101334.38
2023-05-22T16:03:28.250Z,101332.84
2023-05-22T16:05:58.687Z,101321.22
2023-05-22T16:08:29.066Z,101325.69
2023-05-22T16:11:01.066Z,101343.41
2023-05-22T16:13:34.160Z,101345.00
2023-05-22T16:16:06.259Z,101341.63
2023-05-22T16:18:36.644Z,101352.22
2023-05-22T16:21:07.625Z,101349.00
2023-05-22T16:23:37.998Z,101349.69
2023-05-22T16:26:08.703Z,101356.63
2023-05-22T16:28:41.664Z,101358.97
2023-05-22T16:31:13.141Z,101352.28
2023-05-22T16:33:43.549Z,101359.28
2023-05-22T16:36:14.084Z,101341.97
2023-05-22T16:38:45.413Z,101355.47
2023-05-22T16:41:15.800Z,101356.56
2023-05-22T16:43:48.718Z,101357.41
2023-05-22T16:46:19.972Z,101362.97
2023-05-22T16:48:50.664Z,101366.13
2023-05-22T16:51:21.108Z,101357.47
2023-05-22T16:53:53.036Z,101365.50
2023-05-22T16:56:23.367Z,101364.88
2023-05-22T16:58:56.461Z,101359.38
2023-05-22T17:01:27.635Z,101365.94
2023-05-22T17:03:58.345Z,101373.78
2023-05-22T17:06:29.528Z,101372.69
2023-05-22T17:08:59.847Z,101378.63
2023-05-22T17:11:30.354Z,101381.75
2023-05-22T17:14:03.310Z,101384.25
2023-05-22T17:16:34.472Z,101392.22
2023-05-22T17:19:04.891Z,101384.59
2023-05-22T17:21:35.464Z,101389.66
2023-05-22T17:24:05.752Z,101397.44
2023-05-22T17:26:36.264Z,101396.56
2023-05-22T17:29:11.198Z,101395.66
2023-05-22T17:31:41.573Z,101393.91
2023-05-22T17:34:11.882Z,101386.97
2023-05-22T17:36:43.998Z,101388.91
2023-05-22T17:39:15.218Z,101402.84
2023-05-22T17:41:45.563Z,101392.69
2023-05-22T17:44:18.559Z,101400.06
2023-05-22T17:46:49.692Z,101402.56
2023-05-22T17:49:20.031Z,101410.25
2023-05-22T17:51:50.423Z,101417.38
2023-05-22T17:54:20.796Z,101424.03
2023-05-22T17:56:51.248Z,101421.03
2023-05-22T17:59:24.218Z,101429.53
2023-05-22T18:01:54.582Z,101440.78
2023-05-22T18:04:24.945Z,101435.59
2023-05-22T18:06:55.586Z,101439.84
2023-05-22T18:09:25.955Z,101438.03
2023-05-22T18:11:56.350Z,101437.38
2023-05-22T18:14:29.627Z,101433.53
2023-05-22T18:16:59.981Z,101442.88
2023-05-22T18:19:30.443Z,101444.69
2023-05-22T18:22:00.912Z,101453.53
2023-05-22T18:24:32.936Z,101444.84
2023-05-22T18:27:03.258Z,101458.69
2023-05-22T18:29:36.174Z,101463.75
2023-05-22T18:32:09.624Z,101460.50
2023-05-22T18:34:40.510Z,101466.44
2023-05-22T18:37:10.939Z,101459.31
2023-05-22T18:39:41.291Z,101474.06
2023-05-22T18:42:11.950Z,101470.88
2023-05-22T18:44:46.803Z,101468.78
2023-05-22T18:47:18.697Z,101468.13
2023-05-22T18:49:49.002Z,101473.78
2023-05-22T18:52:19.574Z,101481.50
2023-05-22T18:54:50.003Z,101477.66
2023-05-22T18:57:20.509Z,101474.59
2023-05-22T18:59:53.375Z,101489.59
2023-05-22T19:02:24.151Z,101499.06
2023-05-22T19:04:54.531Z,101486.22
2023-05-22T19:07:25.210Z,101492.94
2023-05-22T19:09:55.500Z,101493.72
2023-05-22T19:12:28.564Z,101487.34
2023-05-22T19:15:03.317Z,101488.13
2023-05-22T19:17:33.694Z,101493.06
2023-05-22T19:20:07.739Z,101493.06
2023-05-22T19:22:38.162Z,101497.41
2023-05-22T19:25:10.180Z,101493.78
2023-05-22T19:27:40.646Z,101496.34
2023-05-22T19:30:16.602Z,101503.72
2023-05-22T19:32:47.003Z,101512.84
2023-05-22T19:35:17.650Z,101508.81
2023-05-22T19:37:48.005Z,101511.53
2023-05-22T19:40:18.368Z,101519.75
2023-05-22T19:42:48.708Z,101508.50
2023-05-22T19:45:21.641Z,101520.47
2023-05-22T19:47:51.976Z,101526.97
2023-05-22T19:50:22.568Z,101529.53
2023-05-22T19:52:52.977Z,101536.66
2023-05-22T19:55:23.554Z,101547.78
2023-05-22T19:57:53.876Z,101539.13
2023-05-22T20:00:28.917Z,101538.47
2023-05-22T20:02:59.373Z,101533.41
2023-05-22T20:05:29.857Z,101545.84
2023-05-22T20:08:01.944Z,101541.63
2023-05-22T20:10:33.302Z,101551.88
2023-05-22T20:13:05.111Z,101553.44
2023-05-22T20:15:38.490Z,101552.56
2023-05-22T20:18:09.230Z,101550.00
2023-05-22T20:20:39.489Z,101561.16
2023-05-22T20:23:13.057Z,101564.56
2023-05-22T20:25:43.441Z,101569.03
2023-05-22T20:28:13.863Z,101577.06
2023-05-22T20:30:46.773Z,101569.38
2023-05-22T20:33:17.180Z,101575.16
2023-05-22T20:35:50.245Z,101580.47
2023-05-22T20:38:22.695Z,101586.28
2023-05-22T20:40:53.814Z,101588.56
2023-05-22T20:43:26.434Z,101593.19
2023-05-22T20:45:59.434Z,101595.13
2023-05-22T20:48:29.837Z,101592.72
2023-05-22T20:51:00.253Z,101599.84
2023-05-22T20:53:30.613Z,101604.47
2023-05-22T20:56:00.920Z,101600.22
2023-05-22T20:58:31.234Z,101611.81
2023-05-22T21:01:04.461Z,101615.41
2023-05-22T21:03:34.957Z,101614.56
2023-05-22T21:06:07.020Z,101614.72
2023-05-22T21:08:38.361Z,101616.63
2023-05-22T21:11:09.835Z,101616.13
2023-05-22T21:13:40.209Z,101622.50
2023-05-22T21:16:13.261Z,101623.16
2023-05-22T21:18:43.787Z,101630.19
2023-05-22T21:21:14.177Z,101629.81
2023-05-22T21:23:44.500Z,101637.88
2023-05-22T21:26:14.865Z,101636.00
2023-05-22T21:28:45.859Z,101641.63
2023-05-22T21:31:18.776Z,101634.31
2023-05-22T21:33:49.149Z,101647.13
2023-05-22T21:36:19.651Z,101644.56
2023-05-22T21:38:50.156Z,101656.53
2023-05-22T21:41:20.624Z,101658.09
2023-05-22T21:43:50.954Z,101651.09
2023-05-22T21:46:25.286Z,101648.56
2023-05-22T21:48:56.392Z,101655.88
2023-05-22T21:51:26.690Z,101662.22
2023-05-22T21:53:57.015Z,101659.84
2023-05-22T21:56:27.336Z,101661.56
2023-05-22T21:58:57.688Z,101659.34
2023-05-22T22:01:30.820Z,101667.38
2023-05-22T22:04:01.445Z,101678.97
2023-05-22T22:06:31.858Z,101682.72
2023-05-22T22:09:03.866Z,101681.34
2023-05-22T22:11:34.150Z,101679.66
2023-05-22T22:14:04.575Z,101673.16
2023-05-22T22:16:40.830Z,101682.72
2023-05-22T22:19:11.868Z,101681.19
2023-05-22T22:21:42.377Z,101683.25
2023-05-22T22:24:13.409Z,101677.47
2023-05-22T22:26:43.728Z,101678.84
2023-05-22T22:29:14.242Z,101671.81
2023-05-22T22:31:47.226Z,101662.66
2023-05-22T22:34:17.803Z,101673.53
2023-05-22T22:36:48.174Z,101670.66
2023-05-22T22:39:18.602Z,101668.94
2023-05-22T22:41:48.872Z,101674.91
2023-05-22T22:44:19.141Z,101675.94
2023-05-22T22:46:52.607Z,101682.06
2023-05-22T22:49:22.896Z,101680.38
2023-05-22T22:51:53.830Z,101690.94
2023-05-22T22:54:24.141Z,101688.88
2023-05-22T22:56:54.731Z,101688.72
2023-05-22T22:59:25.178Z,101692.63
2023-05-22T23:01:58.158Z,101695.03
2023-05-22T23:04:28.777Z,101691.25
2023-05-22T23:07:00.002Z,101692.63
2023-05-22T23:09:30.366Z,101689.56
2023-05-22T23:12:00.677Z,101702.84
2023-05-22T23:14:31.024Z,101699.78
2023-05-22T23:17:03.916Z,101702.31
2023-05-22T23:19:34.206Z,101708.97
2023-05-22T23:22:04.554Z,101708.63
2023-05-22T23:24:34.860Z,101720.41
2023-05-22T23:27:05.192Z,101711.19
2023-05-22T23:29:35.716Z,101714.06
2023-05-22T23:32:09.118Z,101714.75
2023-05-22T23:34:39.416Z,101724.81
2023-05-22T23:37:09.731Z,101716.78
2023-05-22T23:39:40.085Z,101712.19
2023-05-22T23:42:12.232Z,101710.34
2023-05-22T23:44:42.622Z,101713.19
2023-05-22T23:47:17.028Z,101712.19
2023-05-22T23:49:47.473Z,101709.66
2023-05-22T23:52:17.778Z,101715.59
2023-05-22T23:54:48.477Z,101715.59
2023-05-22T23:57:18.825Z,101721.19
2023-05-22T23:59:49.127Z,101720.50
